Impacts METAR Board INFO
IDs:

KPHL - Philadelphia Intl, PA, US

Updated at: 0209 UTC 24 Nov 2017
Potential Impact None Slight Moderate High
Time23/14Z 23/15Z 23/16Z 23/17Z 23/18Z 23/19Z 23/20Z 23/21Z 23/22Z 23/23Z 24/00Z 24/01Z 24/02Z
VIS10 10 10 10 10 10 10 10 10 10 10 10 10
CIG-- -- -- -- -- -- -- -- -- -- -- -- --
CoverFEWSCTFEWFEWFEWFEWFEWFEWFEWFEWCLRCLRCLR
FltCatVFRVFRVFRVFRVFRVFRVFRVFRVFRVFRVFRVFRVFR
WX--------------------------
WDir34034033031003303500280270280280280
WSpd9 8 8 7 4 7 4 0 6 9 9 6 4
WGst-- -- -- -- -- -- -- -- -- -- -- -- --
Raw hourly METARs
KPHL 231354Z 34009KT 10SM FEW280 01/M08 A3018 RMK AO2 SLP219 T00111078
KPHL 231454Z 34008KT 10SM SCT280 02/M08 A3016 RMK AO2 SLP212 T00171078 50000
KPHL 231554Z 33008KT 10SM FEW280 03/M08 A3014 RMK AO2 SLP207 T00281078
KPHL 231654Z 31007KT 10SM FEW280 04/M08 A3011 RMK AO2 SLP195 T00391083
KPHL 231754Z VRB04KT 10SM FEW280 05/M08 A3009 RMK AO2 SLP188 T00501078 10050 20000 58023
KPHL 231854Z 33007KT 290V360 10SM FEW160 FEW280 05/M08 A3007 RMK AO2 SLP182 T00501078
KPHL 231954Z 35004KT 10SM FEW160 FEW280 06/M08 A3006 RMK AO2 SLP179 T00561078
KPHL 232054Z 00000KT 10SM FEW160 FEW280 06/M08 A3005 RMK AO2 SLP176 T00561078 56013
KPHL 232154Z 28006KT 10SM FEW160 FEW280 05/M08 A3005 RMK AO2 SLP175 T00501078
KPHL 232254Z 27009KT 10SM FEW250 04/M07 A3006 RMK AO2 SLP180 T00441072
KPHL 232354Z 28009KT 10SM CLR 04/M07 A3006 RMK AO2 SLP178 T00391067 10056 20039 50003
KPHL 240054Z 28006KT 10SM CLR 03/M06 A3005 RMK AO2 SLP175 T00281061
KPHL 240154Z 28004KT 10SM CLR 03/M07 A3006 RMK AO2 SLP180 T00331067